createdAt,value
2019-03-22T00:00:22.045Z,49.00
2019-03-22T00:02:50.346Z,49.10
2019-03-22T00:05:18.619Z,49.10
2019-03-22T00:07:48.660Z,49.10
2019-03-22T00:10:16.852Z,49.10
2019-03-22T00:12:45.133Z,49.20
2019-03-22T00:15:14.914Z,49.50
2019-03-22T00:17:44.784Z,49.50
2019-03-22T00:20:13.057Z,49.60
2019-03-22T00:22:41.355Z,49.90
2019-03-22T00:25:09.617Z,50.00
2019-03-22T00:27:37.858Z,50.00
2019-03-22T00:30:07.543Z,50.10
2019-03-22T00:33:40.928Z,50.20
2019-03-22T00:45:03.537Z,50.40
2019-03-22T00:54:31.292Z,50.90
2019-03-22T00:56:59.549Z,50.00
2019-03-22T00:59:27.792Z,50.70
2019-03-22T01:01:56.054Z,50.90
2019-03-22T01:04:24.295Z,51.10
2019-03-22T01:06:52.539Z,51.10
2019-03-22T01:09:20.782Z,52.00
2019-03-22T01:11:49.066Z,51.40
2019-03-22T01:14:17.317Z,51.10
2019-03-22T01:16:45.570Z,51.30
2019-03-22T01:19:13.839Z,51.10
2019-03-22T01:21:42.107Z,51.20
2019-03-22T01:24:10.390Z,51.20
2019-03-22T01:26:38.626Z,51.10
2019-03-22T01:29:06.888Z,51.00
2019-03-22T01:31:35.137Z,51.10
2019-03-22T01:34:03.404Z,51.30
2019-03-22T01:36:31.801Z,51.30
2019-03-22T01:39:00.113Z,51.20
2019-03-22T01:41:28.380Z,51.20
2019-03-22T01:43:56.627Z,51.20
2019-03-22T01:46:24.890Z,51.20
2019-03-22T01:48:53.223Z,51.30
2019-03-22T01:51:21.505Z,51.30
2019-03-22T01:53:49.738Z,51.20
2019-03-22T01:56:17.985Z,51.20
2019-03-22T01:58:46.235Z,51.20
2019-03-22T02:01:14.483Z,51.30
2019-03-22T02:03:42.824Z,51.40
2019-03-22T02:06:11.089Z,51.60
2019-03-22T02:08:39.369Z,51.40
2019-03-22T02:11:07.779Z,51.80
2019-03-22T02:13:36.056Z,51.80
2019-03-22T02:16:04.343Z,52.00
2019-03-22T02:18:32.760Z,52.00
2019-03-22T02:21:01.089Z,51.70
2019-03-22T02:23:29.419Z,51.90
2019-03-22T02:25:57.708Z,52.20
2019-03-22T02:28:26.001Z,52.50
2019-03-22T02:30:54.289Z,52.60
2019-03-22T02:33:22.551Z,52.60
2019-03-22T02:35:50.802Z,52.60
2019-03-22T02:38:19.104Z,52.70
2019-03-22T02:40:47.364Z,52.70
2019-03-22T02:43:15.792Z,53.10
2019-03-22T02:45:44.144Z,52.70
2019-03-22T02:48:12.402Z,52.70
2019-03-22T02:50:40.682Z,52.60
2019-03-22T02:53:08.956Z,52.50
2019-03-22T02:55:37.230Z,52.60
2019-03-22T02:58:19.941Z,52.80
2019-03-22T03:00:35.518Z,52.90
2019-03-22T03:03:03.802Z,53.00
2019-03-22T03:05:32.063Z,53.10
2019-03-22T03:08:00.297Z,53.30
2019-03-22T03:10:28.543Z,53.40
2019-03-22T03:12:56.809Z,53.60
2019-03-22T03:15:25.053Z,54.40
2019-03-22T03:17:53.335Z,53.90
2019-03-22T03:20:21.604Z,54.60
2019-03-22T03:22:49.853Z,54.20
2019-03-22T03:25:18.204Z,54.10
2019-03-22T03:27:46.444Z,54.10
2019-03-22T03:30:20.644Z,54.70
2019-03-22T03:32:49.123Z,54.20
2019-03-22T03:35:17.626Z,54.50
2019-03-22T03:37:45.948Z,54.60
2019-03-22T03:40:14.364Z,54.60
2019-03-22T03:42:42.616Z,54.90
2019-03-22T03:45:17.271Z,54.80
2019-03-22T03:47:45.547Z,54.90
2019-03-22T03:50:13.831Z,54.70
2019-03-22T03:52:42.234Z,54.70
2019-03-22T03:55:10.578Z,54.80
2019-03-22T03:57:38.836Z,54.80
2019-03-22T04:00:07.735Z,54.80
2019-03-22T04:02:35.999Z,54.80
2019-03-22T04:05:05.420Z,54.70
2019-03-22T04:07:33.755Z,54.80
2019-03-22T04:10:02.028Z,55.20
2019-03-22T04:12:30.265Z,55.60
2019-03-22T04:14:58.572Z,55.90
2019-03-22T04:17:26.836Z,56.00
2019-03-22T04:19:55.163Z,56.10
2019-03-22T04:22:23.424Z,56.40
2019-03-22T04:24:51.716Z,56.90
2019-03-22T04:27:20.006Z,57.30
2019-03-22T04:29:48.320Z,57.30
2019-03-22T04:32:16.595Z,57.50
2019-03-22T04:34:44.864Z,57.70
2019-03-22T04:37:13.125Z,57.80
2019-03-22T04:39:41.364Z,57.80
2019-03-22T04:42:09.689Z,57.90
2019-03-22T04:44:38.040Z,57.70
2019-03-22T04:47:06.288Z,58.00
2019-03-22T04:49:34.685Z,58.10
2019-03-22T04:52:03.500Z,58.80
2019-03-22T04:54:31.747Z,59.20
2019-03-22T04:57:00.072Z,59.40
2019-03-22T04:59:28.361Z,59.20
2019-03-22T05:01:56.695Z,59.50
2019-03-22T05:04:25.052Z,59.40
2019-03-22T05:06:53.475Z,59.30
2019-03-22T05:09:22.212Z,59.00
2019-03-22T05:11:53.823Z,58.70
2019-03-22T05:14:22.164Z,58.50
2019-03-22T05:16:50.412Z,58.40
2019-03-22T05:19:18.828Z,58.30
2019-03-22T05:21:47.079Z,58.30
2019-03-22T05:24:18.056Z,58.10
2019-03-22T05:26:45.330Z,58.40
2019-03-22T05:29:13.572Z,58.30
2019-03-22T05:32:02.891Z,58.40
2019-03-22T05:34:31.157Z,58.30
2019-03-22T05:36:59.474Z,58.40
2019-03-22T05:39:27.756Z,58.30
2019-03-22T05:41:57.118Z,58.40
2019-03-22T05:47:15.606Z,58.70
2019-03-22T05:49:43.909Z,58.80
2019-03-22T05:52:12.201Z,58.70
2019-03-22T05:54:40.475Z,58.70
2019-03-22T05:57:13.330Z,58.50
2019-03-22T05:59:42.688Z,58.60
2019-03-22T06:02:08.708Z,58.60
2019-03-22T06:04:36.963Z,58.60
2019-03-22T06:07:05.314Z,58.80
2019-03-22T06:09:33.602Z,60.10
2019-03-22T06:12:01.918Z,59.90
2019-03-22T06:14:30.261Z,67.80
2019-03-22T06:16:58.514Z,76.40
2019-03-22T06:19:26.805Z,79.70
2019-03-22T06:21:55.148Z,65.90
2019-03-22T06:24:23.486Z,60.80
2019-03-22T06:26:53.524Z,60.50
2019-03-22T06:29:21.863Z,60.40
2019-03-22T06:31:50.159Z,60.30
2019-03-22T06:34:18.408Z,60.40
2019-03-22T06:36:46.686Z,60.10
2019-03-22T06:39:14.937Z,60.30
2019-03-22T06:41:43.283Z,62.10
2019-03-22T06:44:11.544Z,61.40
2019-03-22T06:46:39.795Z,61.10
2019-03-22T06:49:08.067Z,61.10
2019-03-22T06:51:36.334Z,60.60
2019-03-22T06:54:04.615Z,60.30
2019-03-22T06:56:33.005Z,60.30
2019-03-22T06:59:01.262Z,59.90
2019-03-22T07:01:29.595Z,59.50
2019-03-22T07:03:57.849Z,59.50
2019-03-22T07:06:26.118Z,59.40
2019-03-22T07:08:54.386Z,59.30
2019-03-22T07:11:22.674Z,59.30
2019-03-22T07:13:51.018Z,59.10
2019-03-22T07:16:19.282Z,59.00
2019-03-22T07:18:47.547Z,59.10
2019-03-22T07:21:15.797Z,59.70
2019-03-22T07:23:44.043Z,58.60
2019-03-22T07:26:12.306Z,58.60
2019-03-22T07:28:40.659Z,58.30
2019-03-22T07:31:08.940Z,58.30
2019-03-22T07:33:37.215Z,58.20
2019-03-22T07:36:05.452Z,58.20
2019-03-22T07:38:33.715Z,58.10
2019-03-22T07:41:01.984Z,57.80
2019-03-22T07:43:30.281Z,57.50
2019-03-22T07:45:58.565Z,57.80
2019-03-22T07:48:26.817Z,57.50
2019-03-22T07:50:55.077Z,56.60
2019-03-22T07:53:23.344Z,56.40
2019-03-22T07:55:51.576Z,56.20
2019-03-22T07:58:19.830Z,56.50
2019-03-22T08:00:48.142Z,56.30
2019-03-22T08:03:16.388Z,55.90
2019-03-22T08:05:50.956Z,56.10
2019-03-22T08:08:14.655Z,56.10
2019-03-22T08:10:42.961Z,56.20
2019-03-22T08:13:11.249Z,55.30
2019-03-22T08:15:39.566Z,54.90
2019-03-22T08:18:07.996Z,53.80
2019-03-22T08:20:38.659Z,53.20
2019-03-22T08:23:09.480Z,53.60
2019-03-22T08:25:37.748Z,54.40
2019-03-22T08:28:06.011Z,53.90
2019-03-22T08:30:43.058Z,54.20
2019-03-22T08:33:04.283Z,53.10
2019-03-22T08:35:32.657Z,51.90
2019-03-22T08:38:04.817Z,51.60
2019-03-22T08:40:33.180Z,51.80
2019-03-22T08:43:01.505Z,51.90
2019-03-22T08:45:30.114Z,52.10
2019-03-22T08:47:58.352Z,52.70
2019-03-22T08:50:26.750Z,52.30
2019-03-22T08:52:55.124Z,51.40
2019-03-22T08:55:24.379Z,51.20
2019-03-22T08:57:52.621Z,50.50
2019-03-22T09:00:20.921Z,50.80
2019-03-22T09:02:49.827Z,51.40
2019-03-22T09:05:18.493Z,49.90
2019-03-22T09:07:46.857Z,49.50
2019-03-22T09:10:15.329Z,49.10
2019-03-22T09:12:43.871Z,49.80
2019-03-22T09:15:12.186Z,49.30
2019-03-22T09:17:40.441Z,47.30
2019-03-22T09:20:09.941Z,46.60
2019-03-22T09:22:38.365Z,46.90
2019-03-22T09:25:06.725Z,46.70
2019-03-22T09:27:36.566Z,46.80
2019-03-22T09:30:11.350Z,46.90
2019-03-22T09:32:39.651Z,45.30
2019-03-22T09:35:08.519Z,45.90
2019-03-22T09:37:37.038Z,46.00
2019-03-22T09:40:08.433Z,44.80
2019-03-22T09:42:37.126Z,44.90
2019-03-22T09:45:06.876Z,45.20
2019-03-22T09:47:35.181Z,44.60
2019-03-22T09:50:06.004Z,44.50
2019-03-22T09:52:34.347Z,45.10
2019-03-22T09:55:12.626Z,44.40
2019-03-22T09:57:32.641Z,44.00
2019-03-22T10:00:01.018Z,44.40
2019-03-22T10:02:29.298Z,44.00
2019-03-22T10:04:57.619Z,44.10
2019-03-22T10:07:25.902Z,43.80
2019-03-22T10:09:54.218Z,44.10
2019-03-22T10:12:22.510Z,43.50
2019-03-22T10:14:50.798Z,43.10
2019-03-22T10:17:19.047Z,42.50
2019-03-22T10:19:47.327Z,42.30
2019-03-22T10:22:15.660Z,41.50
2019-03-22T10:24:43.988Z,43.00
2019-03-22T10:27:12.283Z,43.00
2019-03-22T10:29:40.613Z,42.00
2019-03-22T10:32:08.912Z,41.40
2019-03-22T10:34:39.665Z,41.60
2019-03-22T10:37:07.199Z,41.90
2019-03-22T10:39:35.450Z,41.40
2019-03-22T10:42:03.808Z,41.40
2019-03-22T10:44:32.068Z,40.60
2019-03-22T10:47:00.504Z,40.40
2019-03-22T10:49:28.830Z,40.60
2019-03-22T10:51:58.168Z,39.70
2019-03-22T10:54:26.840Z,39.40
2019-03-22T10:56:55.152Z,40.20
2019-03-22T10:59:23.475Z,40.60
2019-03-22T11:02:02.591Z,40.60
2019-03-22T11:04:21.839Z,40.40
2019-03-22T11:06:50.117Z,40.10
2019-03-22T11:09:18.435Z,39.80
2019-03-22T11:11:46.729Z,39.70
2019-03-22T11:14:15.096Z,39.20
2019-03-22T11:16:43.358Z,39.10
2019-03-22T11:19:11.612Z,39.20
2019-03-22T11:21:39.901Z,39.00
2019-03-22T11:24:08.166Z,38.00
2019-03-22T11:26:36.447Z,37.80
2019-03-22T11:29:04.813Z,37.00
2019-03-22T11:31:39.820Z,35.70
2019-03-22T11:34:03.120Z,34.80
2019-03-22T11:36:31.381Z,34.60
2019-03-22T11:38:59.667Z,35.00
2019-03-22T11:41:27.933Z,34.90
2019-03-22T11:43:56.221Z,34.40
2019-03-22T11:46:24.488Z,34.20
2019-03-22T11:48:52.742Z,34.10
2019-03-22T11:51:21.018Z,34.00
2019-03-22T11:53:49.289Z,33.10
2019-03-22T11:56:17.538Z,33.70
2019-03-22T11:58:45.872Z,33.40
2019-03-22T12:01:19.673Z,32.90
2019-03-22T12:03:44.130Z,32.70
2019-03-22T12:06:12.458Z,32.40
2019-03-22T12:08:40.712Z,32.50
2019-03-22T12:11:08.976Z,39.30
2019-03-22T12:13:37.252Z,33.50
2019-03-22T12:16:05.531Z,31.60
2019-03-22T12:18:33.808Z,30.10
2019-03-22T12:21:02.126Z,30.90
2019-03-22T12:23:30.672Z,30.50
2019-03-22T12:25:58.937Z,30.00
2019-03-22T12:28:27.217Z,29.70
2019-03-22T12:30:55.481Z,29.60
2019-03-22T12:33:23.921Z,29.10
2019-03-22T12:35:52.197Z,28.80
2019-03-22T12:38:20.476Z,28.70
2019-03-22T12:40:48.759Z,27.70
2019-03-22T12:43:17.064Z,27.60
2019-03-22T12:45:45.402Z,27.60
2019-03-22T12:48:13.666Z,27.10
2019-03-22T12:50:41.922Z,26.60
2019-03-22T12:53:10.217Z,26.00
2019-03-22T12:55:38.472Z,26.00
2019-03-22T12:58:06.846Z,25.80
2019-03-22T13:00:35.176Z,25.30
2019-03-22T13:03:03.479Z,25.40
2019-03-22T13:05:31.824Z,25.40
2019-03-22T13:08:00.176Z,25.70
2019-03-22T13:10:31.977Z,25.20
2019-03-22T13:13:00.331Z,24.90
2019-03-22T13:15:28.705Z,23.80
2019-03-22T13:17:56.977Z,23.80
2019-03-22T13:20:25.279Z,23.20
2019-03-22T13:22:53.590Z,23.30
2019-03-22T13:25:21.896Z,22.00
2019-03-22T13:27:50.856Z,22.80
2019-03-22T13:30:25.116Z,22.80
2019-03-22T13:32:53.483Z,22.60
2019-03-22T13:35:21.877Z,22.80
2019-03-22T13:37:50.207Z,22.60
2019-03-22T13:40:18.493Z,22.30
2019-03-22T13:42:46.776Z,22.50
2019-03-22T13:45:15.034Z,21.80
2019-03-22T13:47:43.288Z,21.60
2019-03-22T13:50:11.718Z,21.20
2019-03-22T13:52:39.982Z,21.30
2019-03-22T13:55:08.987Z,21.00
2019-03-22T13:57:37.244Z,21.10
2019-03-22T14:00:10.840Z,21.10
2019-03-22T14:02:39.128Z,21.30
2019-03-22T14:05:08.242Z,21.40
2019-03-22T14:07:36.521Z,21.20
2019-03-22T14:10:28.769Z,21.40
2019-03-22T14:12:57.843Z,20.80
2019-03-22T14:15:26.124Z,21.20
2019-03-22T14:17:54.481Z,20.80
2019-03-22T14:20:22.779Z,20.90
2019-03-22T14:22:51.034Z,20.70
2019-03-22T14:25:19.432Z,21.10
2019-03-22T14:27:47.709Z,20.90
2019-03-22T14:30:15.978Z,20.90
2019-03-22T14:32:44.261Z,20.80
2019-03-22T14:35:12.595Z,21.20
2019-03-22T14:37:40.848Z,21.00
2019-03-22T14:40:15.340Z,21.20
2019-03-22T14:42:39.178Z,21.10
2019-03-22T14:45:09.072Z,21.00
2019-03-22T14:47:37.340Z,21.00
2019-03-22T14:50:06.186Z,20.70
2019-03-22T14:52:34.468Z,20.60
2019-03-22T14:55:02.714Z,20.40
2019-03-22T14:57:30.979Z,20.30
2019-03-22T14:59:59.433Z,20.70
2019-03-22T15:02:27.786Z,20.50
2019-03-22T15:04:56.066Z,20.50
2019-03-22T15:07:24.329Z,21.00
2019-03-22T15:09:52.593Z,20.40
2019-03-22T15:12:20.832Z,20.40
2019-03-22T15:15:05.782Z,20.10
2019-03-22T15:17:53.972Z,20.10
2019-03-22T15:20:29.807Z,19.90
2019-03-22T15:23:14.772Z,20.40
2019-03-22T15:26:00.823Z,20.10
2019-03-22T15:28:43.079Z,21.10
2019-03-22T15:31:12.970Z,20.40
2019-03-22T15:33:42.953Z,21.00
2019-03-22T15:36:29.167Z,21.10
2019-03-22T15:39:08.406Z,20.90
2019-03-22T15:41:36.928Z,21.30
2019-03-22T15:44:05.249Z,21.50
2019-03-22T15:46:33.902Z,21.80
2019-03-22T15:49:02.226Z,22.30
2019-03-22T15:51:30.488Z,22.20
2019-03-22T15:53:58.765Z,22.80
2019-03-22T15:56:27.019Z,22.90
2019-03-22T16:01:23.312Z,48.70
2019-03-22T16:03:52.505Z,30.30
2019-03-22T16:06:20.743Z,23.60
2019-03-22T16:08:49.026Z,23.60
2019-03-22T16:11:17.288Z,24.10
2019-03-22T16:13:45.558Z,24.40
2019-03-22T16:16:13.833Z,24.80
2019-03-22T16:18:42.163Z,25.20
2019-03-22T16:21:10.448Z,25.50
2019-03-22T16:23:38.737Z,25.80
2019-03-22T16:26:06.998Z,26.10
2019-03-22T16:28:35.283Z,45.60
2019-03-22T16:31:03.579Z,26.80
2019-03-22T16:33:33.214Z,26.80
2019-03-22T16:36:01.841Z,27.20
2019-03-22T16:38:30.092Z,27.50
2019-03-22T16:40:58.390Z,27.80
2019-03-22T16:43:26.642Z,28.10
2019-03-22T16:45:54.888Z,28.30
2019-03-22T16:48:23.216Z,28.60
2019-03-22T16:50:51.524Z,29.00
2019-03-22T16:53:29.625Z,29.30
2019-03-22T16:55:57.897Z,29.70
2019-03-22T16:58:29.177Z,29.70
2019-03-22T17:00:57.486Z,29.80
2019-03-22T17:03:25.893Z,30.10
2019-03-22T17:05:54.151Z,30.50
2019-03-22T17:08:22.546Z,30.90
2019-03-22T17:10:50.857Z,31.30
2019-03-22T17:13:19.187Z,31.50
2019-03-22T17:15:47.449Z,31.70
2019-03-22T17:18:15.725Z,31.90
2019-03-22T17:20:44.107Z,32.40
2019-03-22T17:23:12.397Z,32.70
2019-03-22T17:25:40.686Z,33.00
2019-03-22T17:28:09.037Z,33.40
2019-03-22T17:30:37.393Z,33.50
2019-03-22T17:33:07.909Z,33.70
2019-03-22T17:36:19.276Z,34.00
2019-03-22T17:38:19.109Z,34.40
2019-03-22T17:40:47.374Z,34.70
2019-03-22T17:43:15.654Z,34.90
2019-03-22T17:45:43.900Z,35.20
2019-03-22T17:48:12.167Z,35.40
2019-03-22T17:50:40.597Z,35.50
2019-03-22T17:53:08.941Z,35.70
2019-03-22T17:55:37.203Z,36.20
2019-03-22T17:58:11.333Z,36.30
2019-03-22T18:00:39.680Z,36.80
2019-03-22T18:03:07.964Z,37.40
2019-03-22T18:05:36.242Z,36.90
2019-03-22T18:11:18.746Z,37.30
2019-03-22T18:13:47.030Z,37.50
2019-03-22T18:16:15.376Z,37.90
2019-03-22T18:18:43.630Z,38.20
2019-03-22T18:21:11.885Z,38.40
2019-03-22T18:23:40.142Z,39.10
2019-03-22T18:26:10.523Z,38.50
2019-03-22T18:28:38.792Z,38.80
2019-03-22T18:31:07.054Z,39.20
2019-03-22T18:33:35.310Z,39.50
2019-03-22T18:36:03.568Z,39.20
2019-03-22T18:38:31.835Z,39.90
2019-03-22T18:41:00.101Z,39.90
2019-03-22T18:43:28.373Z,40.00
2019-03-22T18:45:58.514Z,40.10
2019-03-22T18:48:26.610Z,40.30
2019-03-22T18:50:57.072Z,40.30
2019-03-22T18:53:24.978Z,40.40
2019-03-22T18:55:53.270Z,40.60
2019-03-22T18:58:23.634Z,40.80
2019-03-22T19:00:51.511Z,40.90
2019-03-22T19:03:19.845Z,41.20
2019-03-22T19:05:48.222Z,41.30
2019-03-22T19:08:16.498Z,41.40
2019-03-22T19:10:44.799Z,41.80
2019-03-22T19:13:13.450Z,42.60
2019-03-22T19:15:41.717Z,43.70
2019-03-22T19:18:10.038Z,45.90
2019-03-22T19:20:38.284Z,49.70
2019-03-22T19:23:06.577Z,52.80
2019-03-22T19:25:34.824Z,52.60
2019-03-22T19:28:03.129Z,51.40
2019-03-22T19:30:31.395Z,51.40
2019-03-22T19:32:59.669Z,50.90
2019-03-22T19:35:27.912Z,49.80
2019-03-22T19:37:56.198Z,49.60
2019-03-22T19:40:24.520Z,50.70
2019-03-22T19:42:52.830Z,50.80
2019-03-22T19:45:28.556Z,50.50
2019-03-22T19:47:56.812Z,50.10
2019-03-22T19:50:25.084Z,51.00
2019-03-22T19:52:53.420Z,50.70
2019-03-22T19:55:26.723Z,51.10
2019-03-22T19:57:54.965Z,51.40
2019-03-22T20:00:26.241Z,51.20
2019-03-22T20:02:54.483Z,51.40
2019-03-22T20:05:30.393Z,50.90
2019-03-22T20:07:58.734Z,48.70
2019-03-22T20:10:26.989Z,50.40
2019-03-22T20:12:55.404Z,46.20
2019-03-22T20:15:23.659Z,46.30
2019-03-22T20:17:51.992Z,46.30
2019-03-22T20:20:20.231Z,46.50
2019-03-22T20:22:48.509Z,46.40
2019-03-22T20:25:17.349Z,46.50
2019-03-22T20:27:45.667Z,46.80
2019-03-22T20:30:17.483Z,46.80
2019-03-22T20:32:45.815Z,46.90
2019-03-22T20:35:16.819Z,47.00
2019-03-22T20:37:44.109Z,47.30
2019-03-22T20:40:14.967Z,47.50
2019-03-22T20:42:43.262Z,47.50
2019-03-22T20:45:11.536Z,47.50
2019-03-22T20:47:39.794Z,47.60
2019-03-22T20:50:13.294Z,47.90
2019-03-22T20:52:41.584Z,47.80
2019-03-22T20:55:10.942Z,47.80
2019-03-22T20:57:39.179Z,47.70
2019-03-22T21:00:10.135Z,47.80
2019-03-22T21:02:38.421Z,48.00
2019-03-22T21:05:06.685Z,48.20
2019-03-22T21:07:34.988Z,48.30
2019-03-22T21:10:04.146Z,48.40
2019-03-22T21:12:32.449Z,48.40
2019-03-22T21:15:00.718Z,48.40
2019-03-22T21:17:29.068Z,48.50
2019-03-22T21:19:57.543Z,48.80
2019-03-22T21:22:25.804Z,48.90
2019-03-22T21:24:54.058Z,49.00
2019-03-22T21:27:22.698Z,49.10
2019-03-22T21:29:50.960Z,49.30
2019-03-22T21:32:19.199Z,49.30
2019-03-22T21:34:50.373Z,49.20
2019-03-22T21:37:18.639Z,49.40
2019-03-22T21:39:51.903Z,49.40
2019-03-22T21:42:20.205Z,49.50
2019-03-22T21:44:48.612Z,49.70
2019-03-22T21:47:18.788Z,49.70
2019-03-22T21:49:47.248Z,49.90
2019-03-22T21:52:17.300Z,50.00
2019-03-22T21:54:56.736Z,50.20
2019-03-22T21:57:26.672Z,50.60
2019-03-22T21:59:55.037Z,50.20
2019-03-22T22:02:23.303Z,50.00
2019-03-22T22:04:51.897Z,49.90
2019-03-22T22:07:20.340Z,49.90
2019-03-22T22:09:48.604Z,49.90
2019-03-22T22:12:16.876Z,50.00
2019-03-22T22:14:45.135Z,50.40
2019-03-22T22:17:13.438Z,50.80
2019-03-22T22:19:41.704Z,51.10
2019-03-22T22:22:10.550Z,51.70
2019-03-22T22:24:38.811Z,51.70
2019-03-22T22:27:13.697Z,52.00
2019-03-22T22:29:38.813Z,52.20
2019-03-22T22:38:26.143Z,52.30
2019-03-22T22:40:54.685Z,52.10
2019-03-22T22:43:23.759Z,52.00
2019-03-22T22:45:52.098Z,51.90
2019-03-22T22:48:20.388Z,51.70
2019-03-22T22:50:52.116Z,51.70
2019-03-22T22:53:21.751Z,51.50
2019-03-22T22:55:55.133Z,51.40
2019-03-22T22:58:29.058Z,51.40
2019-03-22T23:01:00.385Z,51.40
2019-03-22T23:03:28.674Z,51.60
2019-03-22T23:06:09.037Z,52.00
2019-03-22T23:08:29.908Z,52.60
2019-03-22T23:10:58.199Z,52.90
2019-03-22T23:13:26.474Z,53.20
2019-03-22T23:15:54.817Z,53.20
2019-03-22T23:18:23.149Z,53.20
2019-03-22T23:20:51.453Z,53.30
2019-03-22T23:23:19.809Z,53.10
2019-03-22T23:25:48.077Z,53.00
2019-03-22T23:28:16.382Z,53.00
2019-03-22T23:30:44.698Z,52.80
2019-03-22T23:33:14.602Z,52.80
2019-03-22T23:35:42.890Z,52.80
2019-03-22T23:38:11.138Z,52.60
2019-03-22T23:40:39.419Z,52.60
2019-03-22T23:43:07.779Z,52.40
2019-03-22T23:45:37.691Z,52.10
2019-03-22T23:48:06.000Z,52.00
2019-03-22T23:50:34.370Z,51.80
2019-03-22T23:53:02.650Z,51.90
2019-03-22T23:55:30.933Z,52.10
2019-03-22T23:57:59.201Z,52.20
